Time;durP1;ratioP1;P1;durP2;ratioP2;P2;SDS_P1;SDS_P2;PMS_P1;PMS_P2;Temp;Humidity;BMP_temperature;BMP_pressure;BME280_temperature;BME280_humidity;BME280_pressure;Samples;Min_cycle;Max_cycle;Signal;HPM_P1;HPM_P2
2024/01/21 00:00:09;;;;;;;1.92;1.23;;;0.70;99.90;;;;;;5022363;28;20041;-72
2024/01/21 00:02:35;;;;;;;4.63;2.55;;;0.70;99.90;;;;;;5011862;28;20180;-72
2024/01/21 00:05:00;;;;;;;1.30;1.10;;;0.70;99.90;;;;;;5012927;28;20560;-71
2024/01/21 00:07:26;;;;;;;7.97;1.90;;;0.80;99.90;;;;;;5017654;28;20049;-71
2024/01/21 00:09:52;;;;;;;4.03;2.13;;;0.70;99.90;;;;;;5013820;28;20052;-72
2024/01/21 00:12:17;;;;;;;3.35;1.58;;;0.70;99.90;;;;;;5012054;28;20606;-71
2024/01/21 00:14:43;;;;;;;2.88;1.77;;;0.70;99.90;;;;;;5031100;28;20446;-72
2024/01/21 00:17:09;;;;;;;5.20;1.50;;;0.70;99.90;;;;;;5012132;28;20029;-72
2024/01/21 00:19:35;;;;;;;5.80;1.60;;;0.70;99.90;;;;;;5011824;28;20175;-72
2024/01/21 00:22:01;;;;;;;2.30;1.42;;;0.60;99.90;;;;;;5011747;28;20120;-72
2024/01/21 00:24:26;;;;;;;2.05;1.52;;;0.60;99.90;;;;;;5012682;28;20053;-72
2024/01/21 00:26:52;;;;;;;3.42;2.63;;;0.60;99.90;;;;;;5007632;28;20042;-72
2024/01/21 00:29:18;;;;;;;2.88;2.08;;;0.60;99.90;;;;;;5011253;28;20049;-72
2024/01/21 00:31:44;;;;;;;3.33;1.45;;;0.60;99.90;;;;;;5018612;28;20041;-72
2024/01/21 00:34:10;;;;;;;5.07;2.20;;;0.60;99.90;;;;;;5030676;28;20444;-71
2024/01/21 00:36:36;;;;;;;3.65;1.88;;;0.70;99.90;;;;;;5013305;28;20044;-72
2024/01/21 00:39:01;;;;;;;1.92;0.80;;;0.60;99.90;;;;;;5010345;28;20049;-72
2024/01/21 00:41:27;;;;;;;5.43;2.30;;;0.60;99.90;;;;;;5012661;28;20064;-72
2024/01/21 00:43:53;;;;;;;5.00;2.88;;;0.60;99.90;;;;;;5011333;28;20514;-72
2024/01/21 00:46:18;;;;;;;1.80;1.35;;;0.60;99.90;;;;;;5009855;28;20551;-72
2024/01/21 00:48:44;;;;;;;1.05;0.60;;;0.60;99.90;;;;;;5012423;28;20140;-73
2024/01/21 00:51:10;;;;;;;1.55;1.27;;;0.70;99.90;;;;;;5017237;28;20033;-72
2024/01/21 00:53:35;;;;;;;4.10;2.15;;;0.60;99.90;;;;;;5018766;28;20044;-72
2024/01/21 00:56:01;;;;;;;1.23;0.98;;;0.70;99.90;;;;;;5009788;28;20038;-73
2024/01/21 00:58:27;;;;;;;5.63;1.05;;;0.60;99.90;;;;;;5012118;28;20390;-72
2024/01/21 01:00:52;;;;;;;7.78;2.10;;;0.60;99.90;;;;;;5010862;28;20045;-72
2024/01/21 01:03:18;;;;;;;2.53;1.45;;;0.70;99.90;;;;;;5012180;28;20049;-72
2024/01/21 01:05:44;;;;;;;1.63;1.20;;;0.70;99.90;;;;;;5019231;28;20041;-72
2024/01/21 01:08:09;;;;;;;4.47;1.90;;;0.70;99.90;;;;;;5010026;28;20113;-72
2024/01/21 01:10:35;;;;;;;2.25;1.77;;;0.70;99.90;;;;;;5011048;28;20129;-72
2024/01/21 01:13:01;;;;;;;1.58;1.48;;;0.70;99.90;;;;;;5011968;28;20044;-72
2024/01/21 01:15:27;;;;;;;2.85;1.42;;;0.70;99.90;;;;;;5008917;28;20026;-71
2024/01/21 01:17:52;;;;;;;1.92;1.55;;;0.70;99.90;;;;;;5009226;28;20800;-71
2024/01/21 01:20:18;;;;;;;1.58;1.45;;;0.70;99.90;;;;;;5026119;28;20571;-72
2024/01/21 01:22:44;;;;;;;3.08;1.05;;;0.70;99.90;;;;;;5011466;28;20045;-72
2024/01/21 01:25:10;;;;;;;1.50;0.95;;;0.80;99.90;;;;;;5011566;28;20033;-72
2024/01/21 01:27:36;;;;;;;2.50;2.05;;;0.80;99.90;;;;;;5011160;28;20042;-72
2024/01/21 01:30:01;;;;;;;5.82;1.48;;;0.80;99.90;;;;;;5007010;28;20043;-72
2024/01/21 01:32:27;;;;;;;2.38;1.75;;;0.80;99.90;;;;;;5011671;28;20085;-72
2024/01/21 01:34:55;;;;;;;3.88;1.55;;;0.80;99.90;;;;;;5010311;28;20470;-72
2024/01/21 01:37:22;;;;;;;2.90;1.65;;;0.80;99.90;;;;;;5009438;28;20413;-72
2024/01/21 01:39:47;;;;;;;2.20;1.60;;;0.80;99.90;;;;;;5009923;28;20120;-72
2024/01/21 01:42:13;;;;;;;2.40;1.08;;;0.90;99.90;;;;;;5009524;28;20120;-69
2024/01/21 01:44:40;;;;;;;3.95;0.95;;;0.80;99.90;;;;;;5027684;28;20069;-71
2024/01/21 01:47:10;;;;;;;2.22;1.25;;;0.90;99.90;;;;;;5021840;28;20038;-71
2024/01/21 01:49:40;;;;;;;2.33;1.40;;;0.90;99.90;;;;;;5026391;28;20523;-71
2024/01/21 01:52:07;;;;;;;3.55;1.42;;;0.90;99.90;;;;;;5010425;28;20037;-72
2024/01/21 01:54:34;;;;;;;1.00;0.85;;;0.90;99.90;;;;;;5009205;28;20491;-70
2024/01/21 01:57:03;;;;;;;2.92;1.13;;;0.90;99.90;;;;;;5011333;28;20112;-70
2024/01/21 01:59:31;;;;;;;0.93;0.68;;;1.00;99.90;;;;;;5019190;28;20092;-70
2024/01/21 02:01:57;;;;;;;2.70;1.38;;;1.00;99.90;;;;;;5013047;28;20116;-71
2024/01/21 02:04:24;;;;;;;0.75;0.75;;;1.00;99.90;;;;;;5010988;28;20413;-71
2024/01/21 02:06:49;;;;;;;1.00;0.77;;;1.00;99.90;;;;;;4993092;28;20401;-69
2024/01/21 02:09:15;;;;;;;2.60;1.48;;;1.00;99.90;;;;;;5006259;28;20230;-72
2024/01/21 02:11:41;;;;;;;1.75;0.70;;;1.00;99.90;;;;;;5010151;28;20037;-71
2024/01/21 02:14:06;;;;;;;1.92;1.40;;;1.00;99.90;;;;;;5010108;28;20042;-71
2024/01/21 02:16:32;;;;;;;0.93;0.80;;;1.00;99.90;;;;;;5010537;28;20077;-71
2024/01/21 02:18:58;;;;;;;0.73;0.70;;;1.00;99.90;;;;;;4995427;28;20091;-71
2024/01/21 02:21:24;;;;;;;8.75;1.05;;;1.00;99.90;;;;;;5008570;28;20103;-70
2024/01/21 02:23:52;;;;;;;1.33;0.82;;;1.00;99.90;;;;;;5009404;28;20532;-71
2024/01/21 02:26:18;;;;;;;3.95;0.98;;;1.00;99.90;;;;;;5014866;28;20552;-72
2024/01/21 02:28:44;;;;;;;1.95;0.98;;;1.10;99.90;;;;;;5009973;28;20046;-71
2024/01/21 02:31:09;;;;;;;1.45;0.98;;;1.10;99.90;;;;;;5010415;28;20508;-71
2024/01/21 02:33:35;;;;;;;1.13;0.70;;;1.10;99.90;;;;;;4993882;28;20055;-71
2024/01/21 02:36:01;;;;;;;1.00;0.90;;;1.20;99.90;;;;;;5016213;28;20535;-71
2024/01/21 02:38:26;;;;;;;3.00;0.68;;;1.20;99.90;;;;;;5009670;28;20426;-72
2024/01/21 02:40:52;;;;;;;2.15;0.85;;;1.20;99.90;;;;;;5009188;28;20041;-72
2024/01/21 02:43:18;;;;;;;1.65;0.77;;;1.20;99.90;;;;;;5010273;28;20535;-72
2024/01/21 02:45:43;;;;;;;0.75;0.68;;;1.30;99.90;;;;;;5010063;28;20460;-71
2024/01/21 02:48:09;;;;;;;0.95;0.57;;;1.20;99.90;;;;;;5010392;28;20133;-71
2024/01/21 02:50:35;;;;;;;1.08;0.70;;;1.30;99.90;;;;;;5010616;28;20041;-72
2024/01/21 02:53:00;;;;;;;2.25;0.68;;;1.30;99.90;;;;;;5009378;28;20045;-71
2024/01/21 02:55:26;;;;;;;1.23;0.65;;;1.40;99.90;;;;;;5009658;28;20063;-70
2024/01/21 02:57:52;;;;;;;1.17;0.70;;;1.30;99.90;;;;;;5010141;28;20071;-72
2024/01/21 03:00:18;;;;;;;0.30;0.30;;;1.40;99.90;;;;;;5009994;28;20045;-72
2024/01/21 03:02:44;;;;;;;0.40;0.38;;;1.40;99.90;;;;;;5010237;28;20481;-71
2024/01/21 03:05:09;;;;;;;0.68;0.68;;;1.40;99.90;;;;;;5013020;28;20137;-71
2024/01/21 03:07:35;;;;;;;0.30;0.30;;;1.40;99.90;;;;;;5009148;28;20052;-71
2024/01/21 03:10:01;;;;;;;1.45;1.00;;;1.40;99.90;;;;;;5010410;28;20041;-71
2024/01/21 03:12:26;;;;;;;1.75;0.43;;;1.40;99.90;;;;;;5004201;28;20041;-71
2024/01/21 03:14:52;;;;;;;1.23;0.68;;;1.40;99.90;;;;;;5015972;28;20044;-71
2024/01/21 03:17:18;;;;;;;0.45;0.32;;;1.40;99.90;;;;;;5009713;28;20068;-71
2024/01/21 03:19:44;;;;;;;0.65;0.43;;;1.40;99.90;;;;;;5005646;28;20037;-71
2024/01/21 03:22:10;;;;;;;1.15;0.65;;;1.50;99.90;;;;;;5007234;28;20088;-72
2024/01/21 03:24:36;;;;;;;0.47;0.47;;;1.60;99.90;;;;;;5009777;28;20076;-71
2024/01/21 03:27:02;;;;;;;3.55;0.95;;;1.60;99.90;;;;;;5009566;28;20061;-71
2024/01/21 03:29:27;;;;;;;1.33;0.30;;;1.60;99.90;;;;;;5010229;28;20377;-71
2024/01/21 03:31:53;;;;;;;0.10;0.10;;;1.60;99.90;;;;;;5009007;28;20432;-71
2024/01/21 03:34:19;;;;;;;0.20;0.20;;;1.60;99.90;;;;;;5010027;28;20092;-72
2024/01/21 03:36:44;;;;;;;0.70;0.55;;;1.60;99.90;;;;;;5009507;28;20116;-71
2024/01/21 03:39:10;;;;;;;0.20;0.20;;;1.70;99.90;;;;;;5015023;28;20099;-72
2024/01/21 03:41:36;;;;;;;0.47;0.20;;;1.70;99.90;;;;;;5018014;28;20045;-71
2024/01/21 03:44:01;;;;;;;1.23;0.45;;;1.70;99.90;;;;;;5030523;28;20232;-72
2024/01/21 03:46:27;;;;;;;0.75;0.52;;;1.70;99.90;;;;;;5014016;28;20042;-71
2024/01/21 03:48:53;;;;;;;4.22;0.77;;;1.70;99.90;;;;;;5013157;28;20140;-71
2024/01/21 03:51:19;;;;;;;0.90;0.25;;;1.70;99.90;;;;;;5025453;28;20037;-72
2024/01/21 03:53:44;;;;;;;0.77;0.47;;;1.70;99.90;;;;;;4996857;28;20428;-71
2024/01/21 03:56:18;;;;;;;2.08;0.75;;;1.70;99.90;;;;;;5009941;28;20037;-71
2024/01/21 03:58:44;;;;;;;1.77;0.82;;;1.70;99.90;;;;;;4993696;28;20030;-71
2024/01/21 04:01:09;;;;;;;0.77;0.40;;;1.70;99.90;;;;;;5013005;28;20041;-72
2024/01/21 04:03:35;;;;;;;0.52;0.35;;;1.60;99.90;;;;;;5012309;28;20131;-71
2024/01/21 04:06:01;;;;;;;2.28;0.77;;;1.60;99.90;;;;;;5019936;28;20046;-71
2024/01/21 04:08:26;;;;;;;0.22;0.17;;;1.60;99.90;;;;;;5017560;28;20044;-71
2024/01/21 04:10:54;;;;;;;0.65;0.47;;;1.60;99.90;;;;;;5013292;28;20034;-71
2024/01/21 04:13:20;;;;;;;1.02;0.50;;;1.60;99.90;;;;;;5013025;28;20057;-71
2024/01/21 04:15:46;;;;;;;0.45;0.25;;;1.70;99.90;;;;;;5012950;28;20044;-71
2024/01/21 04:18:11;;;;;;;0.90;0.43;;;1.70;99.90;;;;;;5012351;28;20045;-72
2024/01/21 04:20:37;;;;;;;0.25;0.25;;;1.70;99.90;;;;;;5010108;28;20515;-70
2024/01/21 04:23:03;;;;;;;1.00;0.13;;;1.60;99.90;;;;;;5011148;28;20379;-72
2024/01/21 04:25:29;;;;;;;0.77;0.30;;;1.60;99.90;;;;;;5018906;28;20033;-71
2024/01/21 04:27:54;;;;;;;0.63;0.30;;;1.60;99.90;;;;;;5010951;28;20160;-71
2024/01/21 04:30:20;;;;;;;1.05;0.50;;;1.60;99.90;;;;;;5012220;28;20413;-71
2024/01/21 04:32:46;;;;;;;3.10;0.30;;;1.60;99.90;;;;;;5012694;28;20048;-71
2024/01/21 04:35:11;;;;;;;2.05;1.10;;;1.60;99.90;;;;;;5013560;28;20037;-70
2024/01/21 04:37:37;;;;;;;0.05;0.05;;;1.50;99.90;;;;;;5010135;28;20056;-71
2024/01/21 04:40:04;;;;;;;0.90;0.10;;;1.50;99.90;;;;;;5011978;28;20441;-71
2024/01/21 04:42:29;;;;;;;0.17;0.17;;;1.50;99.90;;;;;;4994212;28;20045;-72
2024/01/21 04:44:55;;;;;;;2.63;0.30;;;1.50;99.90;;;;;;5009945;28;20038;-71
2024/01/21 04:47:21;;;;;;;0.73;0.30;;;1.50;99.90;;;;;;5012553;28;20493;-71
2024/01/21 04:49:47;;;;;;;0.75;0.20;;;1.50;99.90;;;;;;5011390;28;20042;-71
2024/01/21 04:52:12;;;;;;;0.85;0.50;;;1.50;99.90;;;;;;5011581;28;20465;-71
2024/01/21 04:54:38;;;;;;;0.22;0.20;;;1.50;99.90;;;;;;5011627;28;20056;-70
2024/01/21 04:57:04;;;;;;;0.75;0.10;;;1.50;99.90;;;;;;5030041;28;20064;-70
2024/01/21 04:59:29;;;;;;;0.63;0.32;;;1.50;99.90;;;;;;5011888;28;20084;-71
2024/01/21 05:01:55;;;;;;;0.17;0.17;;;1.50;99.90;;;;;;5017995;28;20473;-71
2024/01/21 05:04:21;;;;;;;0.10;0.00;;;1.50;99.90;;;;;;5016527;28;20504;-71
2024/01/21 05:06:46;;;;;;;0.57;0.28;;;1.50;99.90;;;;;;5011823;28;20117;-71
2024/01/21 05:09:12;;;;;;;1.13;0.20;;;1.50;99.90;;;;;;5011091;28;20091;-71
2024/01/21 05:11:38;;;;;;;0.85;0.43;;;1.50;99.90;;;;;;5018722;28;20040;-71
2024/01/21 05:14:04;;;;;;;0.22;0.20;;;1.50;99.90;;;;;;5010329;28;20068;-71
2024/01/21 05:16:29;;;;;;;0.00;0.00;;;1.40;99.90;;;;;;5012174;28;20489;-72
2024/01/21 05:18:56;;;;;;;0.08;0.08;;;1.40;99.90;;;;;;5020668;28;20041;-71
2024/01/21 05:21:22;;;;;;;1.65;1.05;;;1.40;99.90;;;;;;5028320;28;20041;-71
2024/01/21 05:23:51;;;;;;;0.40;0.30;;;1.40;99.90;;;;;;5009321;28;20059;-71
2024/01/21 05:26:17;;;;;;;0.60;0.30;;;1.40;99.90;;;;;;5010991;28;20045;-71
2024/01/21 05:28:43;;;;;;;1.00;0.35;;;1.40;99.90;;;;;;5011286;28;20094;-71
2024/01/21 05:31:09;;;;;;;0.30;0.30;;;1.30;99.90;;;;;;5011783;28;20089;-71
2024/01/21 05:33:35;;;;;;;0.75;0.50;;;1.30;99.90;;;;;;5012349;28;20127;-70
2024/01/21 05:36:00;;;;;;;0.35;0.32;;;1.40;99.90;;;;;;5028252;28;20045;-71
2024/01/21 05:38:26;;;;;;;0.90;0.57;;;1.40;99.90;;;;;;5009649;28;20194;-71
2024/01/21 05:40:52;;;;;;;0.17;0.13;;;1.50;99.90;;;;;;5011782;28;20063;-71
2024/01/21 05:43:18;;;;;;;1.52;0.65;;;1.60;99.90;;;;;;5010020;28;20048;-72
2024/01/21 05:45:44;;;;;;;1.23;0.95;;;1.60;99.90;;;;;;5011031;28;20045;-70
2024/01/21 05:48:10;;;;;;;1.15;0.40;;;1.60;99.90;;;;;;5015578;28;20046;-71
2024/01/21 05:50:36;;;;;;;0.20;0.20;;;1.60;99.90;;;;;;5026551;28;20045;-71
2024/01/21 05:53:05;;;;;;;2.97;0.60;;;1.70;99.90;;;;;;4993714;28;20048;-71
2024/01/21 05:55:31;;;;;;;0.10;0.10;;;1.70;99.90;;;;;;5008885;28;20038;-70
2024/01/21 05:58:00;;;;;;;0.93;0.75;;;1.80;99.90;;;;;;5009871;28;20535;-70
2024/01/21 06:00:25;;;;;;;1.85;0.28;;;1.80;99.90;;;;;;5009595;28;20164;-71
2024/01/21 06:02:51;;;;;;;4.15;0.60;;;1.80;99.90;;;;;;5010729;28;20081;-70
2024/01/21 06:05:17;;;;;;;1.85;0.98;;;1.90;99.90;;;;;;5021976;28;20057;-71
2024/01/21 06:07:44;;;;;;;0.38;0.38;;;1.90;99.90;;;;;;5009845;28;20033;-71
2024/01/21 06:10:10;;;;;;;0.63;0.45;;;2.00;99.90;;;;;;5010451;28;20486;-71
2024/01/21 06:12:36;;;;;;;1.48;0.75;;;2.00;99.90;;;;;;5021040;28;20061;-71
2024/01/21 06:15:03;;;;;;;0.52;0.52;;;2.10;99.90;;;;;;5008527;28;20072;-71
2024/01/21 06:17:28;;;;;;;1.77;0.70;;;2.10;99.90;;;;;;5009808;28;20481;-71
2024/01/21 06:19:54;;;;;;;2.28;0.63;;;2.10;99.90;;;;;;5010241;28;20048;-70
2024/01/21 06:22:20;;;;;;;0.20;0.20;;;2.10;99.90;;;;;;5010119;28;20498;-70
2024/01/21 06:24:45;;;;;;;1.45;0.50;;;2.20;99.90;;;;;;5010434;28;20515;-70
2024/01/21 06:27:11;;;;;;;0.68;0.43;;;2.20;99.90;;;;;;5010222;28;20068;-71
2024/01/21 06:29:37;;;;;;;0.50;0.47;;;2.20;99.90;;;;;;5010307;28;20430;-71
2024/01/21 06:32:03;;;;;;;1.77;0.38;;;2.30;99.90;;;;;;5010460;28;20076;-71
2024/01/21 06:34:28;;;;;;;2.67;0.50;;;2.30;99.90;;;;;;5011528;28;20046;-70
2024/01/21 06:36:54;;;;;;;1.02;0.63;;;2.20;99.90;;;;;;5028460;28;20091;-71
2024/01/21 06:39:20;;;;;;;0.70;0.60;;;2.20;99.90;;;;;;5008994;28;20081;-70
2024/01/21 06:41:48;;;;;;;2.75;0.85;;;2.20;99.90;;;;;;5010703;28;20076;-71
2024/01/21 06:44:14;;;;;;;0.25;0.25;;;2.20;99.90;;;;;;5020966;28;20045;-72
2024/01/21 06:46:40;;;;;;;2.10;0.88;;;2.20;99.90;;;;;;5010385;28;20037;-70
2024/01/21 06:49:06;;;;;;;1.65;0.88;;;2.10;99.90;;;;;;5010192;28;20095;-69
2024/01/21 06:51:34;;;;;;;1.85;1.00;;;2.20;99.90;;;;;;5011345;28;20516;-71
2024/01/21 06:54:00;;;;;;;0.70;0.60;;;2.10;99.90;;;;;;5008436;28;20046;-71
2024/01/21 06:56:26;;;;;;;1.95;0.75;;;2.10;99.90;;;;;;5010988;28;20085;-72
2024/01/21 06:58:52;;;;;;;0.90;0.68;;;2.10;99.90;;;;;;5007387;28;20194;-71
2024/01/21 07:01:18;;;;;;;0.52;0.35;;;2.10;99.90;;;;;;5008586;28;20044;-72
2024/01/21 07:03:45;;;;;;;1.90;0.82;;;2.10;99.90;;;;;;5008481;28;20416;-71
2024/01/21 07:06:11;;;;;;;0.60;0.60;;;2.10;99.90;;;;;;5009953;28;20042;-71
2024/01/21 07:08:38;;;;;;;2.92;1.25;;;2.20;99.90;;;;;;5008894;28;20406;-71
2024/01/21 07:11:10;;;;;;;0.28;0.20;;;2.20;99.90;;;;;;5009958;28;20045;-72
2024/01/21 07:13:37;;;;;;;1.20;0.90;;;2.10;99.90;;;;;;5029615;28;20397;-71
2024/01/21 07:16:03;;;;;;;1.02;0.57;;;2.20;99.90;;;;;;5014502;28;20579;-72
2024/01/21 07:18:29;;;;;;;0.40;0.20;;;2.20;99.90;;;;;;5019173;28;20096;-71
2024/01/21 07:20:55;;;;;;;1.60;1.20;;;2.20;99.90;;;;;;5013857;28;20052;-71
2024/01/21 07:23:20;;;;;;;0.95;0.50;;;2.20;99.90;;;;;;5012452;28;20939;-71
2024/01/21 07:25:47;;;;;;;2.63;1.05;;;2.10;99.90;;;;;;5013864;28;20131;-71
2024/01/21 07:28:13;;;;;;;0.70;0.60;;;2.20;99.90;;;;;;5013462;28;20474;-71
2024/01/21 07:30:39;;;;;;;1.73;1.02;;;2.10;99.90;;;;;;4998234;28;20386;-72
2024/01/21 07:33:05;;;;;;;1.50;1.08;;;2.10;99.90;;;;;;5012998;28;20169;-72
2024/01/21 07:35:31;;;;;;;2.55;1.35;;;2.10;99.90;;;;;;5019923;28;20113;-71
2024/01/21 07:37:56;;;;;;;3.05;0.82;;;2.10;99.90;;;;;;5012061;28;20164;-72
2024/01/21 07:40:22;;;;;;;3.30;1.33;;;2.10;99.90;;;;;;5021443;28;20042;-72
2024/01/21 07:42:48;;;;;;;1.23;0.70;;;2.20;99.90;;;;;;5005586;28;20044;-72
2024/01/21 07:45:14;;;;;;;0.45;0.43;;;2.20;99.90;;;;;;5012918;28;20038;-71
2024/01/21 07:47:40;;;;;;;1.27;1.02;;;2.20;99.90;;;;;;5013563;28;20476;-72
2024/01/21 07:50:07;;;;;;;1.70;0.93;;;2.10;99.90;;;;;;5012069;28;20392;-71
2024/01/21 07:52:33;;;;;;;1.33;0.95;;;2.10;99.90;;;;;;5010439;28;20109;-71
2024/01/21 07:54:58;;;;;;;0.95;0.70;;;2.20;99.90;;;;;;5012132;28;20470;-72
2024/01/21 07:57:24;;;;;;;1.02;0.40;;;2.20;99.90;;;;;;5012785;28;20053;-72
2024/01/21 07:59:50;;;;;;;3.65;0.88;;;2.20;99.90;;;;;;5028118;28;20045;-71
2024/01/21 08:02:16;;;;;;;1.27;0.85;;;2.20;99.90;;;;;;5013605;28;20111;-71
2024/01/21 08:04:42;;;;;;;1.52;1.05;;;2.20;99.90;;;;;;5013197;28;20540;-72
2024/01/21 08:07:08;;;;;;;2.40;1.48;;;2.20;99.90;;;;;;5012231;28;20509;-72
2024/01/21 08:09:34;;;;;;;0.38;0.32;;;2.20;99.90;;;;;;5012501;28;20045;-71
2024/01/21 08:12:00;;;;;;;0.98;0.47;;;2.30;99.90;;;;;;5013077;28;20033;-71
2024/01/21 08:14:26;;;;;;;1.17;0.60;;;2.30;99.90;;;;;;5013004;28;20041;-72
2024/01/21 08:16:52;;;;;;;3.00;0.70;;;2.30;99.90;;;;;;5011992;28;20036;-72
2024/01/21 08:19:19;;;;;;;0.95;0.40;;;2.30;99.90;;;;;;5012653;28;20076;-72
2024/01/21 08:21:46;;;;;;;1.02;0.57;;;2.30;99.90;;;;;;5011399;28;20128;-72
2024/01/21 08:24:12;;;;;;;1.42;0.75;;;2.30;99.90;;;;;;5011254;28;20049;-71
2024/01/21 08:26:38;;;;;;;0.90;0.40;;;2.40;99.90;;;;;;5013654;28;20143;-71
2024/01/21 08:29:04;;;;;;;2.42;1.25;;;2.40;99.90;;;;;;5022120;28;20045;-72
2024/01/21 08:31:30;;;;;;;3.78;0.70;;;2.40;99.90;;;;;;4995422;28;20155;-72
2024/01/21 08:33:56;;;;;;;1.25;0.80;;;2.50;99.90;;;;;;5012720;28;20041;-71
2024/01/21 08:36:21;;;;;;;1.85;1.02;;;2.60;99.90;;;;;;5011405;28;20046;-70
2024/01/21 08:38:47;;;;;;;0.65;0.65;;;2.50;99.90;;;;;;5001419;28;20045;-72
2024/01/21 08:41:13;;;;;;;2.47;0.68;;;2.60;99.90;;;;;;5011566;28;20041;-71
2024/01/21 08:43:38;;;;;;;1.08;0.88;;;2.50;99.90;;;;;;5002501;28;20135;-70
2024/01/21 08:46:04;;;;;;;3.58;1.08;;;2.50;99.90;;;;;;5008482;28;20050;-70
2024/01/21 08:48:30;;;;;;;1.90;1.17;;;2.50;99.90;;;;;;5012309;28;20481;-71
2024/01/21 08:50:56;;;;;;;1.05;0.57;;;2.40;99.90;;;;;;5011606;28;20128;-71
2024/01/21 08:53:22;;;;;;;1.10;0.38;;;2.40;99.90;;;;;;5011899;28;20145;-71
2024/01/21 08:55:48;;;;;;;3.08;1.77;;;2.50;99.90;;;;;;5010863;28;20037;-71
2024/01/21 08:58:14;;;;;;;3.72;0.95;;;2.50;99.90;;;;;;5012688;28;20132;-71
2024/01/21 09:00:39;;;;;;;2.60;0.98;;;2.60;99.90;;;;;;5011757;28;20041;-71
2024/01/21 09:03:05;;;;;;;0.20;0.17;;;2.70;99.90;;;;;;4995815;28;20457;-71
2024/01/21 09:05:31;;;;;;;0.68;0.32;;;2.80;99.90;;;;;;5018309;28;20154;-70
2024/01/21 09:07:57;;;;;;;1.95;1.15;;;2.80;99.90;;;;;;5028292;28;20437;-71
2024/01/21 09:10:22;;;;;;;0.75;0.52;;;2.90;99.90;;;;;;5025169;28;20339;-71
2024/01/21 09:12:48;;;;;;;2.08;0.68;;;2.90;99.90;;;;;;5011677;28;20452;-71
2024/01/21 09:15:14;;;;;;;2.85;1.17;;;2.90;99.90;;;;;;5011772;28;20041;-72
2024/01/21 09:17:41;;;;;;;2.38;1.58;;;2.90;99.90;;;;;;5011895;28;20041;-72
2024/01/21 09:20:07;;;;;;;1.17;0.70;;;2.90;99.90;;;;;;5016753;28;20366;-72
2024/01/21 09:22:33;;;;;;;1.05;0.75;;;2.90;99.90;;;;;;5010914;28;20037;-71
2024/01/21 09:24:59;;;;;;;0.73;0.63;;;3.00;99.90;;;;;;5011679;28;20091;-71
2024/01/21 09:27:24;;;;;;;11.13;5.35;;;2.90;99.90;;;;;;5010727;28;20041;-70
2024/01/21 09:29:50;;;;;;;2.45;0.55;;;2.90;99.90;;;;;;5010563;28;20046;-71
2024/01/21 09:32:17;;;;;;;3.75;0.85;;;2.90;99.90;;;;;;5011497;28;20493;-71
2024/01/21 09:34:43;;;;;;;1.67;0.80;;;2.80;99.90;;;;;;5009771;28;20041;-70
2024/01/21 09:37:10;;;;;;;0.65;0.57;;;2.90;99.90;;;;;;5028013;28;20113;-71
2024/01/21 09:39:37;;;;;;;3.25;1.25;;;3.00;99.90;;;;;;5011344;28;20087;-71
2024/01/21 09:42:07;;;;;;;1.05;0.77;;;3.00;99.90;;;;;;5011806;28;20382;-71
2024/01/21 09:44:33;;;;;;;4.70;0.73;;;3.10;99.90;;;;;;5027271;28;20053;-72
2024/01/21 09:47:00;;;;;;;2.63;1.00;;;3.20;99.90;;;;;;5007828;28;20052;-72
2024/01/21 09:49:26;;;;;;;0.90;0.77;;;3.30;99.90;;;;;;5010561;28;20405;-71
2024/01/21 09:51:53;;;;;;;3.78;1.20;;;3.30;99.90;;;;;;5013447;28;20408;-70
2024/01/21 09:54:20;;;;;;;2.25;0.88;;;3.30;99.90;;;;;;5010171;28;20033;-71
2024/01/21 09:56:46;;;;;;;1.42;1.00;;;3.40;99.90;;;;;;5018825;28;20041;-71
2024/01/21 09:59:12;;;;;;;1.70;1.40;;;3.50;99.90;;;;;;5027538;28;20056;-71
2024/01/21 10:01:40;;;;;;;5.32;0.75;;;3.40;99.90;;;;;;5002827;28;20111;-72
2024/01/21 10:04:08;;;;;;;1.80;0.77;;;3.60;99.90;;;;;;5009366;28;20061;-71
2024/01/21 10:06:35;;;;;;;1.98;0.88;;;3.60;99.90;;;;;;5010287;28;20119;-71
2024/01/21 10:09:16;;;;;;;0.77;0.52;;;3.80;99.90;;;;;;4997268;28;20041;-72
2024/01/21 10:11:43;;;;;;;1.48;1.27;;;3.70;99.90;;;;;;5010843;28;20336;-71
2024/01/21 10:14:10;;;;;;;1.02;0.70;;;3.80;99.90;;;;;;5010508;28;20037;-71
2024/01/21 10:16:41;;;;;;;1.92;0.50;;;3.70;99.90;;;;;;5018499;28;20058;-71
2024/01/21 10:19:07;;;;;;;2.60;1.05;;;3.80;99.90;;;;;;5029393;28;20048;-72
2024/01/21 10:21:32;;;;;;;0.63;0.60;;;3.80;99.90;;;;;;5019191;28;20409;-72
2024/01/21 10:24:01;;;;;;;2.03;0.70;;;3.80;99.90;;;;;;5009430;28;20057;-71
2024/01/21 10:26:27;;;;;;;2.50;0.93;;;3.90;99.90;;;;;;5010519;28;20140;-71
2024/01/21 10:28:52;;;;;;;1.38;1.05;;;3.90;99.90;;;;;;5010942;28;20529;-72
2024/01/21 10:31:18;;;;;;;3.13;1.13;;;3.90;99.90;;;;;;5012077;28;20573;-71
2024/01/21 10:33:44;;;;;;;1.40;0.90;;;3.90;99.90;;;;;;4992897;28;20033;-71
2024/01/21 10:36:12;;;;;;;3.35;1.13;;;4.00;99.90;;;;;;5011186;28;20164;-72
2024/01/21 10:38:49;;;;;;;3.92;1.00;;;3.90;99.90;;;;;;5010318;28;20073;-72
2024/01/21 10:41:25;;;;;;;2.00;1.05;;;4.00;99.90;;;;;;5010826;28;20049;-72
2024/01/21 10:43:54;;;;;;;2.85;1.55;;;4.00;99.90;;;;;;5008399;28;20046;-72
2024/01/21 10:46:21;;;;;;;0.80;0.40;;;4.00;99.90;;;;;;5024912;28;20489;-72
2024/01/21 10:48:48;;;;;;;2.00;1.00;;;4.00;99.90;;;;;;5014364;28;20046;-71
2024/01/21 10:51:18;;;;;;;1.40;0.68;;;4.00;99.90;;;;;;5030319;28;20552;-72
2024/01/21 10:53:46;;;;;;;1.08;0.80;;;4.10;99.90;;;;;;5021622;28;20042;-72
2024/01/21 10:56:12;;;;;;;1.67;0.98;;;4.10;99.90;;;;;;5029277;28;20037;-70
2024/01/21 10:58:38;;;;;;;1.38;1.27;;;4.10;99.90;;;;;;4996301;28;20489;-72
2024/01/21 11:01:04;;;;;;;2.47;0.95;;;4.00;99.90;;;;;;5008585;28;20064;-71
2024/01/21 11:03:31;;;;;;;1.83;1.35;;;4.10;99.90;;;;;;5013909;28;20461;-72
2024/01/21 11:06:05;;;;;;;2.70;1.30;;;4.10;99.90;;;;;;5013847;28;20065;-71
2024/01/21 11:08:32;;;;;;;0.63;0.63;;;4.10;99.90;;;;;;5013646;28;20049;-71
2024/01/21 11:11:15;;;;;;;2.10;0.80;;;4.20;99.90;;;;;;5013764;28;20648;-71
2024/01/21 11:13:49;;;;;;;2.20;0.90;;;4.20;99.90;;;;;;5015009;28;20045;-72
2024/01/21 11:16:29;;;;;;;2.47;1.45;;;4.20;99.90;;;;;;5030162;28;20124;-70
2024/01/21 11:19:04;;;;;;;0.75;0.50;;;4.30;99.90;;;;;;5012613;28;20156;-72
2024/01/21 11:21:31;;;;;;;2.47;1.38;;;4.30;99.90;;;;;;5014114;28;20041;-72
2024/01/21 11:24:04;;;;;;;2.25;0.50;;;4.30;99.90;;;;;;5010994;28;20041;-71
2024/01/21 11:26:36;;;;;;;1.00;0.82;;;4.40;99.90;;;;;;5013507;28;20041;-71
2024/01/21 11:29:05;;;;;;;1.40;0.85;;;4.30;99.90;;;;;;5013194;28;20041;-72
2024/01/21 11:31:35;;;;;;;1.50;0.95;;;4.30;99.90;;;;;;5009135;28;20068;-72
2024/01/21 11:34:11;;;;;;;6.43;1.52;;;4.40;99.90;;;;;;5013830;28;20037;-72
2024/01/21 11:36:40;;;;;;;1.80;1.00;;;4.40;99.90;;;;;;5011512;28;20157;-72
2024/01/21 11:39:09;;;;;;;2.03;0.63;;;4.40;99.90;;;;;;5010792;28;20049;-72
2024/01/21 11:41:42;;;;;;;1.73;1.15;;;4.40;99.90;;;;;;5013752;28;20029;-71
2024/01/21 11:44:14;;;;;;;1.13;1.00;;;4.40;99.90;;;;;;5015061;28;20401;-71
2024/01/21 11:46:42;;;;;;;2.05;1.25;;;4.40;99.90;;;;;;5015765;28;20405;-72
2024/01/21 11:49:09;;;;;;;8.57;1.15;;;4.40;99.90;;;;;;5013156;28;20057;-71
2024/01/21 11:51:36;;;;;;;3.53;1.13;;;4.40;99.90;;;;;;5013382;28;20389;-72
2024/01/21 11:54:02;;;;;;;2.65;1.30;;;4.40;99.90;;;;;;5012375;28;20049;-73
2024/01/21 11:56:27;;;;;;;1.30;0.73;;;4.40;99.90;;;;;;5013955;28;20048;-72
2024/01/21 11:58:53;;;;;;;1.77;1.25;;;4.40;99.90;;;;;;5017858;28;20049;-72
2024/01/21 12:01:20;;;;;;;1.20;0.90;;;4.40;99.90;;;;;;5030562;28;20111;-72
2024/01/21 12:03:49;;;;;;;1.88;1.05;;;4.50;99.90;;;;;;5012966;28;20056;-72
2024/01/21 12:06:16;;;;;;;1.38;0.98;;;4.50;99.90;;;;;;5011262;28;20271;-72
2024/01/21 12:08:44;;;;;;;1.75;1.35;;;4.50;99.90;;;;;;5012030;28;20045;-72
2024/01/21 12:11:11;;;;;;;2.28;1.30;;;4.50;99.90;;;;;;5014358;28;20615;-73
2024/01/21 12:13:40;;;;;;;1.85;0.95;;;4.50;99.90;;;;;;5012293;28;20041;-72
2024/01/21 12:16:10;;;;;;;1.58;0.85;;;4.50;99.90;;;;;;5008079;28;20057;-71
2024/01/21 12:18:42;;;;;;;3.42;1.17;;;4.50;99.90;;;;;;5012093;28;20485;-71
2024/01/21 12:21:12;;;;;;;2.53;1.20;;;4.50;99.90;;;;;;5010875;28;20042;-72
2024/01/21 12:23:46;;;;;;;2.03;0.90;;;4.50;99.90;;;;;;5009468;28;20486;-72
2024/01/21 12:26:20;;;;;;;3.00;0.95;;;4.60;99.90;;;;;;5013565;28;20053;-72
2024/01/21 12:28:59;;;;;;;0.88;0.75;;;4.60;99.90;;;;;;5009797;28;20117;-72
2024/01/21 12:31:39;;;;;;;2.10;0.68;;;4.60;99.90;;;;;;5021310;28;20045;-72
2024/01/21 12:34:10;;;;;;;1.35;0.75;;;4.60;99.90;;;;;;4992912;28;20583;-72
2024/01/21 12:36:45;;;;;;;1.70;0.95;;;4.60;99.90;;;;;;5012564;28;20041;-72
2024/01/21 12:39:16;;;;;;;2.95;2.03;;;4.60;99.90;;;;;;5011119;28;20120;-71
2024/01/21 12:41:42;;;;;;;3.42;1.35;;;4.60;99.90;;;;;;5012708;28;20609;-72
2024/01/21 12:44:08;;;;;;;1.85;1.20;;;4.70;99.90;;;;;;5018376;28;20045;-71
2024/01/21 12:46:34;;;;;;;3.20;1.35;;;4.60;99.90;;;;;;5012751;28;20492;-71
2024/01/21 12:49:00;;;;;;;1.50;0.98;;;4.60;99.90;;;;;;5011737;28;20037;-71
2024/01/21 12:51:28;;;;;;;1.55;1.08;;;4.70;99.90;;;;;;5013102;28;20083;-71
2024/01/21 12:53:54;;;;;;;0.70;0.65;;;4.70;99.90;;;;;;5008342;28;20566;-71